createdAt,value
2023-05-14T00:00:37.793Z,95560.56
2023-05-14T00:01:39.728Z,95561.00
2023-05-14T00:02:42.904Z,95548.50
2023-05-14T00:03:45.050Z,95559.50
2023-05-14T00:04:48.023Z,95553.19
2023-05-14T00:05:51.382Z,95556.28
2023-05-14T00:06:54.239Z,95552.31
2023-05-14T00:07:56.141Z,95560.09
2023-05-14T00:08:59.027Z,95554.59
2023-05-14T00:10:00.845Z,95557.81
2023-05-14T00:11:03.837Z,95554.75
2023-05-14T00:12:06.495Z,95556.41
2023-05-14T00:13:09.327Z,95550.16
2023-05-14T00:14:11.232Z,95550.16
2023-05-14T00:15:14.264Z,95546.63
2023-05-14T00:16:16.157Z,95552.91
2023-05-14T00:17:19.573Z,95549.84
2023-05-14T00:18:21.649Z,95549.03
2023-05-14T00:19:24.554Z,95548.75
2023-05-14T00:20:26.714Z,95546.44
2023-05-14T00:21:31.591Z,95546.44
2023-05-14T00:22:33.821Z,95553.47
2023-05-14T00:23:36.724Z,95547.97
2023-05-14T00:24:39.593Z,95553.47
2023-05-14T00:25:41.538Z,95548.75
2023-05-14T00:26:44.475Z,95547.09
2023-05-14T00:27:46.335Z,95541.59
2023-05-14T00:28:49.677Z,95544.66
2023-05-14T00:29:51.553Z,95545.41
2023-05-14T00:30:54.656Z,95549.69
2023-05-14T00:31:56.656Z,95542.19
2023-05-14T00:32:59.636Z,95540.25
2023-05-14T00:34:01.761Z,95546.06
2023-05-14T00:35:05.340Z,95551.56
2023-05-14T00:36:08.384Z,95548.03
2023-05-14T00:37:12.797Z,95541.31
2023-05-14T00:38:17.648Z,95553.84
2023-05-14T00:39:20.520Z,95538.13
2023-05-14T00:40:26.837Z,95538.91
2023-05-14T00:41:29.731Z,95548.34
2023-05-14T00:42:31.616Z,95535.38
2023-05-14T00:43:34.607Z,95548.34
2023-05-14T00:44:36.534Z,95546.81
2023-05-14T00:45:39.785Z,95545.59
2023-05-14T00:46:43.682Z,95542.84
2023-05-14T00:47:47.571Z,95544.06
2023-05-14T00:48:49.680Z,95551.56
2023-05-14T00:49:52.712Z,95545.28
2023-05-14T00:50:54.766Z,95543.75
2023-05-14T00:51:59.110Z,95538.25
2023-05-14T00:53:02.724Z,95537.03
2023-05-14T00:54:06.848Z,95535.84
2023-05-14T00:55:11.902Z,95542.09
2023-05-14T00:56:15.391Z,95541.31
2023-05-14T00:57:18.820Z,95540.09
2023-05-14T00:58:22.997Z,95532.63
2023-05-14T00:59:25.737Z,95535.06
2023-05-14T01:00:28.640Z,95535.84
2023-05-14T01:01:31.219Z,95540.09
2023-05-14T01:02:34.315Z,95533.09
2023-05-14T01:03:36.629Z,95539.34
2023-05-14T01:04:40.552Z,95540.09
2023-05-14T01:05:52.232Z,95525.59
2023-05-14T01:07:08.225Z,95533.84
2023-05-14T01:08:23.690Z,95531.09
2023-05-14T01:09:30.587Z,95530.78
2023-05-14T01:10:40.051Z,95528.47
2023-05-14T01:11:49.889Z,95529.69
2023-05-14T01:13:03.540Z,95525.41
2023-05-14T01:14:13.152Z,95538.38
2023-05-14T01:15:22.084Z,95526.63
2023-05-14T01:16:28.010Z,95526.63
2023-05-14T01:17:34.206Z,95532.13
2023-05-14T01:18:36.978Z,95528.16
2023-05-14T01:19:42.265Z,95528.16
2023-05-14T01:20:44.884Z,95522.66
2023-05-14T01:21:49.245Z,95528.94
2023-05-14T01:22:51.126Z,95526.94
2023-05-14T01:23:54.119Z,95525.72
2023-05-14T01:24:57.052Z,95514.72
2023-05-14T01:25:59.212Z,95516.25
2023-05-14T01:27:08.416Z,95520.53
2023-05-14T01:28:15.508Z,95526.34
2023-05-14T01:29:23.143Z,95522.84
2023-05-14T01:30:31.908Z,95523.59
2023-05-14T01:31:37.704Z,95532.63
2023-05-14T01:32:40.676Z,95527.13
2023-05-14T01:33:45.237Z,95522.84
2023-05-14T01:34:49.286Z,95520.84
2023-05-14T01:35:53.719Z,95520.84
2023-05-14T01:36:58.353Z,95527.13
2023-05-14T01:38:03.233Z,95522.41
2023-05-14T01:39:06.310Z,95518.88
2023-05-14T01:40:11.960Z,95526.34
2023-05-14T01:41:14.907Z,95527.91
2023-05-14T01:42:17.900Z,95523.59
2023-05-14T01:43:21.005Z,95521.63
2023-05-14T01:44:24.194Z,95520.84
2023-05-14T01:45:26.473Z,95523.16
2023-05-14T01:46:32.809Z,95518.88
2023-05-14T01:47:34.865Z,95529.09
2023-05-14T01:48:38.769Z,95520.09
2023-05-14T01:49:41.395Z,95520.09
2023-05-14T01:50:44.263Z,95519.34
2023-05-14T01:51:46.252Z,95525.59
2023-05-14T01:52:53.373Z,95521.63
2023-05-14T01:53:56.109Z,95520.84
2023-05-14T01:55:00.022Z,95519.34
2023-05-14T01:56:01.989Z,95517.03
2023-05-14T01:57:05.033Z,95517.03
2023-05-14T01:58:07.622Z,95517.78
2023-05-14T01:59:10.494Z,95521.31
2023-05-14T02:00:13.100Z,95512.28
2023-05-14T02:01:19.464Z,95514.28
2023-05-14T02:02:22.819Z,95512.28
2023-05-14T02:03:25.998Z,95515.03
2023-05-14T02:04:27.951Z,95511.53
2023-05-14T02:05:30.957Z,95514.72
2023-05-14T02:06:33.385Z,95503.72
2023-05-14T02:07:36.266Z,95509.22
2023-05-14T02:08:39.674Z,95509.22
2023-05-14T02:09:42.525Z,95511.19
2023-05-14T02:10:44.408Z,95506.94
2023-05-14T02:11:47.303Z,95507.69
2023-05-14T02:12:49.187Z,95498.22
2023-05-14T02:13:52.747Z,95508.47
2023-05-14T02:14:54.704Z,95504.50
2023-05-14T02:15:57.697Z,95500.97
2023-05-14T02:17:00.186Z,95500.22
2023-05-14T02:18:03.196Z,95503.72
2023-05-14T02:19:05.601Z,95500.97
2023-05-14T02:20:10.174Z,95502.53
2023-05-14T02:21:12.147Z,95499.44
2023-05-14T02:22:15.121Z,95499.88
2023-05-14T02:23:17.072Z,95493.63
2023-05-14T02:24:21.612Z,95499.13
2023-05-14T02:25:23.497Z,95493.63
2023-05-14T02:26:26.963Z,95501.13
2023-05-14T02:27:29.972Z,95495.63
2023-05-14T02:28:32.877Z,95494.06
2023-05-14T02:29:34.760Z,95495.28
2023-05-14T02:30:37.814Z,95499.28
2023-05-14T02:31:39.775Z,95499.38
2023-05-14T02:32:42.808Z,95501.38
2023-05-14T02:33:44.901Z,95497.88
2023-05-14T02:34:48.753Z,95502.13
2023-05-14T02:35:50.678Z,95504.56
2023-05-14T02:36:53.967Z,95500.72
2023-05-14T02:37:56.211Z,95497.22
2023-05-14T02:39:00.281Z,95503.31
2023-05-14T02:40:04.479Z,95496.84
2023-05-14T02:41:07.473Z,95499.16
2023-05-14T02:42:09.322Z,95499.59
2023-05-14T02:43:12.215Z,95495.94
2023-05-14T02:44:14.122Z,95500.56
2023-05-14T02:45:17.017Z,95502.06
2023-05-14T02:46:19.018Z,95499.66
2023-05-14T02:47:21.930Z,95501.16
2023-05-14T02:48:23.964Z,95499.50
2023-05-14T02:49:26.800Z,95500.28
2023-05-14T02:50:28.693Z,95504.56
2023-05-14T02:51:31.612Z,95496.31
2023-05-14T02:52:33.545Z,95503.38
2023-05-14T02:53:36.361Z,95495.13
2023-05-14T02:54:38.312Z,95493.13
2023-05-14T02:55:42.747Z,95489.16
2023-05-14T02:56:44.628Z,95495.41
2023-05-14T02:57:47.653Z,95493.88
2023-05-14T02:58:49.599Z,95494.31
2023-05-14T02:59:52.449Z,95490.81
2023-05-14T03:00:55.016Z,95493.56
2023-05-14T03:01:58.422Z,95485.00
2023-05-14T03:03:00.887Z,95492.47
2023-05-14T03:04:04.279Z,95486.22
2023-05-14T03:05:06.643Z,95491.72
2023-05-14T03:06:09.655Z,95491.72
2023-05-14T03:07:11.650Z,95491.72
2023-05-14T03:08:14.517Z,95494.47
2023-05-14T03:09:16.462Z,95487.75
2023-05-14T03:10:19.490Z,95494.47
2023-05-14T03:11:22.857Z,95486.22
2023-05-14T03:12:25.990Z,95491.72
2023-05-14T03:13:27.934Z,95488.97
2023-05-14T03:14:30.766Z,95493.25
2023-05-14T03:15:32.621Z,95487.75
2023-05-14T03:16:35.504Z,95483.81
2023-05-14T03:17:37.429Z,95486.22
2023-05-14T03:18:40.791Z,95486.22
2023-05-14T03:19:44.341Z,95485.16
2023-05-14T03:20:47.255Z,95479.19
2023-05-14T03:21:50.061Z,95490.19
2023-05-14T03:22:53.186Z,95484.69
2023-05-14T03:23:55.041Z,95488.97
2023-05-14T03:24:57.859Z,95487.44
2023-05-14T03:25:59.793Z,95484.69
2023-05-14T03:27:04.379Z,95485.47
2023-05-14T03:28:06.707Z,95486.66
2023-05-14T03:29:10.764Z,95477.66
2023-05-14T03:30:13.129Z,95480.41
2023-05-14T03:31:16.205Z,95481.94
2023-05-14T03:32:18.429Z,95477.66
2023-05-14T03:33:21.480Z,95486.22
2023-05-14T03:34:23.458Z,95485.91
2023-05-14T03:35:26.299Z,95479.66
2023-05-14T03:36:29.258Z,95484.34
2023-05-14T03:37:31.271Z,95481.59
2023-05-14T03:38:34.083Z,95484.34
2023-05-14T03:39:36.201Z,95480.41
2023-05-14T03:40:41.003Z,95477.66
2023-05-14T03:41:42.832Z,95475.34
2023-05-14T03:42:47.110Z,95478.88
2023-05-14T03:43:50.905Z,95473.06
2023-05-14T03:44:53.793Z,95478.09
2023-05-14T03:45:55.693Z,95477.34
2023-05-14T03:46:59.013Z,95473.84
2023-05-14T03:48:01.736Z,95472.28
2023-05-14T03:49:05.756Z,95473.06
2023-05-14T03:50:08.891Z,95477.03
2023-05-14T03:51:11.948Z,95476.25
2023-05-14T03:52:13.835Z,95471.53
2023-05-14T03:53:19.688Z,95469.53
2023-05-14T03:54:21.891Z,95466.78
2023-05-14T03:55:24.780Z,95464.81
2023-05-14T03:56:27.266Z,95467.56
2023-05-14T03:57:30.321Z,95464.81
2023-05-14T03:58:33.575Z,95469.09
2023-05-14T03:59:36.466Z,95467.56
2023-05-14T04:00:38.360Z,95464.81
2023-05-14T04:01:42.127Z,95461.28
2023-05-14T04:02:44.100Z,95473.84
2023-05-14T04:03:47.447Z,95473.06
2023-05-14T04:04:49.602Z,95473.06
2023-05-14T04:05:55.722Z,95473.06
2023-05-14T04:06:57.549Z,95467.56
2023-05-14T04:08:00.836Z,95467.56
2023-05-14T04:09:03.212Z,95467.25
2023-05-14T04:10:07.112Z,95464.19
2023-05-14T04:11:10.935Z,95470.13
2023-05-14T04:12:13.871Z,95460.69
2023-05-14T04:13:16.243Z,95470.88
2023-05-14T04:14:21.194Z,95470.88
2023-05-14T04:15:23.653Z,95468.91
2023-05-14T04:16:26.939Z,95475.16
2023-05-14T04:17:28.934Z,95469.69
2023-05-14T04:18:35.246Z,95473.94
2023-05-14T04:19:37.209Z,95465.25
2023-05-14T04:20:40.518Z,95473.50
2023-05-14T04:21:43.401Z,95470.00
2023-05-14T04:22:45.604Z,95473.19
2023-05-14T04:23:48.538Z,95471.66
2023-05-14T04:24:50.398Z,95466.94
2023-05-14T04:25:53.266Z,95472.44
2023-05-14T04:26:55.173Z,95477.91
2023-05-14T04:27:58.575Z,95471.66
2023-05-14T04:29:02.945Z,95475.63
2023-05-14T04:30:08.988Z,95467.69
2023-05-14T04:31:10.920Z,95470.88
2023-05-14T04:32:14.715Z,95475.16
2023-05-14T04:33:16.945Z,95467.81
2023-05-14T04:34:19.791Z,95467.81
2023-05-14T04:35:24.190Z,95469.03
2023-05-14T04:36:28.377Z,95475.75
2023-05-14T04:37:30.973Z,95478.94
2023-05-14T04:38:33.877Z,95469.47
2023-05-14T04:39:35.916Z,95471.13
2023-05-14T04:40:38.754Z,95469.63
2023-05-14T04:41:40.765Z,95475.88
2023-05-14T04:42:44.210Z,95478.19
2023-05-14T04:43:47.298Z,95471.47
2023-05-14T04:44:50.205Z,95477.72
2023-05-14T04:45:53.647Z,95473.00
2023-05-14T04:46:57.201Z,95485.53
2023-05-14T04:47:59.156Z,95481.25
2023-05-14T04:49:02.069Z,95483.53
2023-05-14T04:50:04.558Z,95478.78
2023-05-14T04:51:07.767Z,95478.78
2023-05-14T04:52:09.643Z,95481.25
2023-05-14T04:53:12.534Z,95473.44
2023-05-14T04:54:15.039Z,95479.69
2023-05-14T04:55:18.082Z,95474.97
2023-05-14T04:56:20.041Z,95474.97
2023-05-14T04:57:22.917Z,95474.22
2023-05-14T04:58:28.854Z,95478.50
2023-05-14T04:59:30.992Z,95481.25
2023-05-14T05:00:34.152Z,95482.78
2023-05-14T05:01:37.586Z,95480.03
2023-05-14T05:02:40.460Z,95477.28
2023-05-14T05:03:42.404Z,95477.28
2023-05-14T05:04:45.424Z,95478.78
2023-05-14T05:05:47.854Z,95481.53
2023-05-14T05:06:51.345Z,95483.09
2023-05-14T05:07:53.313Z,95478.34
2023-05-14T05:08:56.220Z,95483.09
2023-05-14T05:09:58.089Z,95485.84
2023-05-14T05:11:00.957Z,95483.84
2023-05-14T05:12:02.780Z,95480.34
2023-05-14T05:13:05.646Z,95485.84
2023-05-14T05:14:07.842Z,95480.34
2023-05-14T05:15:10.965Z,95476.84
2023-05-14T05:16:12.920Z,95470.25
2023-05-14T05:17:17.126Z,95484.00
2023-05-14T05:18:19.207Z,95482.44
2023-05-14T05:19:29.094Z,95481.25
2023-05-14T05:20:35.350Z,95474.97
2023-05-14T05:21:40.675Z,95484.00
2023-05-14T05:22:43.699Z,95475.75
2023-05-14T05:23:45.630Z,95485.19
2023-05-14T05:24:50.004Z,95482.88
2023-05-14T05:25:52.002Z,95479.84
2023-05-14T05:26:55.772Z,95483.78
2023-05-14T05:27:57.719Z,95482.38
2023-05-14T05:29:00.870Z,95483.59
2023-05-14T05:30:03.933Z,95478.53
2023-05-14T05:31:06.926Z,95479.31
2023-05-14T05:32:08.848Z,95484.03
2023-05-14T05:33:13.480Z,95475.38
2023-05-14T05:34:15.423Z,95492.59
2023-05-14T05:35:18.333Z,95485.56
2023-05-14T05:36:20.658Z,95480.84
2023-05-14T05:37:23.581Z,95476.88
2023-05-14T05:38:25.768Z,95483.13
2023-05-14T05:39:34.563Z,95481.47
2023-05-14T05:40:36.436Z,95482.28
2023-05-14T05:41:39.273Z,95473.56
2023-05-14T05:42:41.368Z,95474.34
2023-05-14T05:43:44.215Z,95479.38
2023-05-14T05:44:46.307Z,95479.38
2023-05-14T05:45:49.287Z,95484.88
2023-05-14T05:46:51.267Z,95483.69
2023-05-14T05:47:54.229Z,95478.94
2023-05-14T05:48:57.531Z,95484.88
2023-05-14T05:50:01.012Z,95480.94
2023-05-14T05:51:02.937Z,95486.41
2023-05-14T05:52:06.374Z,95486.84
2023-05-14T05:53:08.280Z,95486.09
2023-05-14T05:54:11.139Z,95481.47
2023-05-14T05:55:12.953Z,95490.94
2023-05-14T05:56:15.798Z,95483.94
2023-05-14T05:57:17.691Z,95490.19
2023-05-14T05:58:20.604Z,95495.69
2023-05-14T05:59:22.416Z,95495.34
2023-05-14T06:00:25.759Z,95489.53
2023-05-14T06:01:27.910Z,95488.78
2023-05-14T06:02:30.965Z,95488.78
2023-05-14T06:03:32.860Z,95490.28
2023-05-14T06:04:37.049Z,95493.38
2023-05-14T06:05:38.870Z,95495.34
2023-05-14T06:06:41.760Z,95496.13
2023-05-14T06:07:43.587Z,95486.78
2023-05-14T06:08:46.472Z,95490.75
2023-05-14T06:09:48.365Z,95495.78
2023-05-14T06:10:51.170Z,95499.75
2023-05-14T06:11:53.049Z,95500.63
2023-05-14T06:12:55.928Z,95494.84
2023-05-14T06:13:57.773Z,95503.53
2023-05-14T06:15:00.641Z,95499.66
2023-05-14T06:16:02.522Z,95499.66
2023-05-14T06:17:05.818Z,95501.19
2023-05-14T06:18:07.985Z,95498.44
2023-05-14T06:19:11.111Z,95498.44
2023-05-14T06:20:14.724Z,95497.28
2023-05-14T06:21:17.497Z,95497.28
2023-05-14T06:22:19.637Z,95505.50
2023-05-14T06:23:22.591Z,95487.44
2023-05-14T06:24:25.038Z,95494.53
2023-05-14T06:25:27.892Z,95489.44
2023-05-14T06:26:30.846Z,95489.09
2023-05-14T06:27:33.422Z,95494.09
2023-05-14T06:28:36.268Z,95486.19
2023-05-14T06:29:38.147Z,95490.44
2023-05-14T06:30:40.990Z,95479.13
2023-05-14T06:31:42.943Z,95482.19
2023-05-14T06:32:45.912Z,95478.69
2023-05-14T06:33:47.831Z,95485.28
2023-05-14T06:34:50.736Z,95482.84
2023-05-14T06:35:53.922Z,95478.88
2023-05-14T06:36:57.222Z,95479.97
2023-05-14T06:38:00.125Z,95481.19
2023-05-14T06:39:01.940Z,95482.84
2023-05-14T06:40:06.050Z,95471.88
2023-05-14T06:41:07.970Z,95477.38
2023-05-14T06:42:11.089Z,95472.19
2023-05-14T06:43:12.977Z,95472.97
2023-05-14T06:44:15.787Z,95479.56
2023-05-14T06:45:17.875Z,95479.88
2023-05-14T06:46:20.722Z,95475.91
2023-05-14T06:47:22.639Z,95476.25
2023-05-14T06:48:27.954Z,95477.03
2023-05-14T06:49:30.007Z,95476.56
2023-05-14T06:50:32.815Z,95478.13
2023-05-14T06:51:36.216Z,95487.88
2023-05-14T06:52:39.499Z,95478.44
2023-05-14T06:53:41.584Z,95475.97
2023-05-14T06:54:44.455Z,95479.97
2023-05-14T06:55:47.511Z,95482.28
2023-05-14T06:56:50.344Z,95475.22
2023-05-14T06:57:52.277Z,95481.03
2023-05-14T06:58:55.148Z,95472.03
2023-05-14T06:59:57.523Z,95479.06
2023-05-14T07:01:01.268Z,95477.84
2023-05-14T07:02:03.274Z,95476.63
2023-05-14T07:03:06.307Z,95486.41
2023-05-14T07:04:08.333Z,95476.63
2023-05-14T07:05:11.585Z,95486.41
2023-05-14T07:06:13.921Z,95477.09
2023-05-14T07:07:20.710Z,95484.56
2023-05-14T07:08:22.814Z,95484.56
2023-05-14T07:09:25.774Z,95483.34
2023-05-14T07:10:27.730Z,95479.84
2023-05-14T07:11:30.925Z,95476.63
2023-05-14T07:12:32.867Z,95480.94
2023-05-14T07:13:36.296Z,95482.28
2023-05-14T07:14:38.193Z,95483.78
2023-05-14T07:15:41.046Z,95482.28
2023-05-14T07:16:42.996Z,95475.97
2023-05-14T07:17:46.040Z,95482.28
2023-05-14T07:18:48.038Z,95484.03
2023-05-14T07:19:51.107Z,95484.16
2023-05-14T07:20:52.966Z,95496.38
2023-05-14T07:21:55.960Z,95482.63
2023-05-14T07:22:59.275Z,95484.16
2023-05-14T07:24:02.209Z,95481.13
2023-05-14T07:25:04.570Z,95481.13
2023-05-14T07:26:07.817Z,95478.66
2023-05-14T07:27:09.768Z,95482.19
2023-05-14T07:28:12.634Z,95472.28
2023-05-14T07:29:14.545Z,95486.34
2023-05-14T07:30:18.377Z,95470.63
2023-05-14T07:31:20.712Z,95465.91
2023-05-14T07:32:25.101Z,95468.66
2023-05-14T07:33:27.432Z,95465.13
2023-05-14T07:34:30.336Z,95460.41
2023-05-14T07:35:32.315Z,95463.47
2023-05-14T07:36:35.399Z,95449.31
2023-05-14T07:37:37.786Z,95459.81
2023-05-14T07:38:42.323Z,95457.88
2023-05-14T07:39:44.170Z,95451.91
2023-05-14T07:40:47.273Z,95452.22
2023-05-14T07:41:50.097Z,95459.28
2023-05-14T07:42:52.973Z,95459.72
2023-05-14T07:43:54.946Z,95457.59
2023-05-14T07:44:57.785Z,95461.88
2023-05-14T07:45:59.708Z,95457.13
2023-05-14T07:47:04.191Z,95459.88
2023-05-14T07:48:06.455Z,95456.69
2023-05-14T07:49:09.561Z,95454.38
2023-05-14T07:50:11.776Z,95457.47
2023-05-14T07:51:14.723Z,95461.28
2023-05-14T07:52:16.755Z,95458.03
2023-05-14T07:53:19.728Z,95459.72
2023-05-14T07:54:23.059Z,95455.41
2023-05-14T07:55:26.011Z,95460.91
2023-05-14T07:56:28.033Z,95454.66
2023-05-14T07:57:30.948Z,95457.06
2023-05-14T07:58:33.024Z,95451.56
2023-05-14T07:59:35.987Z,95456.31
2023-05-14T08:00:37.993Z,95453.56
2023-05-14T08:01:40.918Z,95450.81
2023-05-14T08:02:42.901Z,95450.81
2023-05-14T08:03:46.211Z,95452.81
2023-05-14T08:04:48.182Z,95448.50
2023-05-14T08:05:52.534Z,95455.56
2023-05-14T08:06:56.231Z,95444.56
2023-05-14T08:07:58.425Z,95444.56
2023-05-14T08:09:01.287Z,95444.56
2023-05-14T08:10:05.348Z,95439.06
2023-05-14T08:11:08.342Z,95445.31
2023-05-14T08:12:10.232Z,95430.50
2023-05-14T08:13:13.105Z,95437.53
2023-05-14T08:14:15.105Z,95437.53
2023-05-14T08:15:18.323Z,95438.31
2023-05-14T08:16:20.644Z,95434.78
2023-05-14T08:17:23.826Z,95434.34
2023-05-14T08:18:25.810Z,95438.31
2023-05-14T08:19:28.830Z,95431.59
2023-05-14T08:20:31.227Z,95431.16
2023-05-14T08:21:34.047Z,95431.16
2023-05-14T08:22:35.920Z,95432.66
2023-05-14T08:23:38.869Z,95431.16
2023-05-14T08:24:42.777Z,95429.16
2023-05-14T08:25:47.069Z,95436.97
2023-05-14T08:26:49.090Z,95433.00
2023-05-14T08:27:53.668Z,95434.97
2023-05-14T08:28:55.653Z,95446.72
2023-05-14T08:29:58.759Z,95436.50
2023-05-14T08:31:00.803Z,95431.47
2023-05-14T08:32:15.600Z,95442.78
2023-05-14T08:33:22.631Z,95441.22
2023-05-14T08:34:24.482Z,95441.22
2023-05-14T08:35:27.379Z,95441.22
2023-05-14T08:36:29.446Z,95441.69
2023-05-14T08:37:32.525Z,95439.72
2023-05-14T08:38:34.418Z,95445.22
2023-05-14T08:39:37.425Z,95438.50
2023-05-14T08:40:39.779Z,95450.69
2023-05-14T08:41:44.320Z,95446.72
2023-05-14T08:42:47.634Z,95452.22
2023-05-14T08:44:05.786Z,95450.69
2023-05-14T08:45:14.241Z,95458.47
2023-05-14T08:46:18.069Z,95451.47
2023-05-14T08:47:23.797Z,95445.97
2023-05-14T08:48:29.288Z,95449.47
2023-05-14T08:49:41.330Z,95458.03
2023-05-14T08:50:44.924Z,95448.28
2023-05-14T08:51:48.490Z,95449.03
2023-05-14T08:52:52.174Z,95453.78
2023-05-14T08:53:54.045Z,95452.22
2023-05-14T08:54:57.535Z,95456.53
2023-05-14T08:56:01.717Z,95449.81
2023-05-14T08:57:07.325Z,95455.72
2023-05-14T08:58:09.250Z,95460.03
2023-05-14T08:59:12.209Z,95448.28
2023-05-14T09:00:15.647Z,95442.00
2023-05-14T09:01:20.028Z,95442.63
2023-05-14T09:02:25.139Z,95446.34
2023-05-14T09:03:28.654Z,95444.69
2023-05-14T09:04:32.345Z,95441.50
2023-05-14T09:05:35.336Z,95445.00
2023-05-14T09:06:37.747Z,95443.19
2023-05-14T09:07:40.572Z,95437.56
2023-05-14T09:08:42.742Z,95446.59
2023-05-14T09:09:46.070Z,95446.59
2023-05-14T09:10:47.985Z,95445.06
2023-05-14T09:11:52.052Z,95443.50
2023-05-14T09:12:56.416Z,95441.66
2023-05-14T09:13:58.373Z,95435.84
2023-05-14T09:15:01.740Z,95438.28
2023-05-14T09:16:03.793Z,95437.97
2023-05-14T09:17:06.738Z,95441.50
2023-05-14T09:18:08.913Z,95445.88
2023-05-14T09:19:13.263Z,95437.34
2023-05-14T09:20:16.618Z,95433.06
2023-05-14T09:21:18.900Z,95441.28
2023-05-14T09:22:22.380Z,95433.06
2023-05-14T09:23:25.950Z,95439.78
2023-05-14T09:24:30.227Z,95435.81
2023-05-14T09:25:32.771Z,95438.53
2023-05-14T09:26:36.468Z,95433.81
2023-05-14T09:27:38.892Z,95441.28
2023-05-14T09:28:44.664Z,95443.28
2023-05-14T09:29:47.557Z,95438.53
2023-05-14T09:30:52.745Z,95443.28
2023-05-14T09:31:55.620Z,95440.97
2023-05-14T09:32:58.586Z,95436.69
2023-05-14T09:34:00.922Z,95440.22
2023-05-14T09:35:11.422Z,95432.72
2023-05-14T09:36:13.211Z,95430.44
2023-05-14T09:37:16.563Z,95435.03
2023-05-14T09:38:18.412Z,95427.56
2023-05-14T09:39:22.343Z,95429.88
2023-05-14T09:40:25.022Z,95436.13
2023-05-14T09:41:28.104Z,95425.44
2023-05-14T09:42:29.992Z,95435.22
2023-05-14T09:43:32.888Z,95438.28
2023-05-14T09:44:37.971Z,95431.25
2023-05-14T09:45:41.970Z,95433.53
2023-05-14T09:46:44.171Z,95427.28
2023-05-14T09:47:47.109Z,95431.47
2023-05-14T09:48:49.362Z,95428.16
2023-05-14T09:49:52.192Z,95434.75
2023-05-14T09:52:15.754Z,95426.94
2023-05-14T09:53:19.762Z,95428.63
2023-05-14T09:54:21.912Z,95429.06
2023-05-14T09:55:24.894Z,95440.97
2023-05-14T09:56:26.743Z,95437.88
2023-05-14T09:57:29.763Z,95431.63
2023-05-14T09:58:32.659Z,95430.56
2023-05-14T09:59:35.916Z,95432.97
2023-05-14T10:00:39.237Z,95432.66
2023-05-14T10:01:43.316Z,95435.84
2023-05-14T10:02:48.769Z,95427.59
2023-05-14T10:03:51.600Z,95432.03
2023-05-14T10:04:58.010Z,95435.22
2023-05-14T10:06:08.648Z,95431.25
2023-05-14T10:07:11.968Z,95426.66
2023-05-14T10:08:21.142Z,95429.41
2023-05-14T10:09:26.356Z,95423.91
2023-05-14T10:10:31.699Z,95425.88
2023-05-14T10:11:35.707Z,95420.84
2023-05-14T10:12:41.763Z,95416.25
2023-05-14T10:13:50.224Z,95425.41
2023-05-14T10:14:57.970Z,95419.91
2023-05-14T10:16:10.049Z,95422.31
2023-05-14T10:17:18.430Z,95422.31
2023-05-14T10:18:24.970Z,95426.28
2023-05-14T10:19:30.044Z,95418.06
2023-05-14T10:20:33.381Z,95420.81
2023-05-14T10:21:36.789Z,95416.81
2023-05-14T10:22:40.109Z,95425.41
2023-05-14T10:23:44.329Z,95424.16
2023-05-14T10:24:47.378Z,95422.19
2023-05-14T10:25:50.933Z,95424.50
2023-05-14T10:26:53.273Z,95429.97
2023-05-14T10:27:56.719Z,95433.06
2023-05-14T10:29:00.391Z,95429.09
2023-05-14T10:30:10.408Z,95425.13
2023-05-14T10:31:14.428Z,95425.13
2023-05-14T10:32:16.517Z,95432.16
2023-05-14T10:33:19.421Z,95432.94
2023-05-14T10:34:37.674Z,95429.72
2023-05-14T10:35:56.613Z,95429.72
2023-05-14T10:37:00.866Z,95425.00
2023-05-14T10:38:09.118Z,95432.47
2023-05-14T10:39:11.023Z,95426.53
2023-05-14T10:40:14.810Z,95428.84
2023-05-14T10:41:17.926Z,95424.84
2023-05-14T10:42:24.751Z,95433.88
2023-05-14T10:43:28.316Z,95429.16
2023-05-14T10:44:32.860Z,95429.16
2023-05-14T10:45:37.736Z,95424.09
2023-05-14T10:46:40.159Z,95428.84
2023-05-14T10:47:45.278Z,95432.66
2023-05-14T10:48:47.324Z,95426.41
2023-05-14T10:49:50.486Z,95433.44
2023-05-14T10:50:53.035Z,95436.19
2023-05-14T10:51:57.144Z,95431.13
2023-05-14T10:53:00.212Z,95426.41
2023-05-14T10:54:02.119Z,95431.13
2023-05-14T10:55:08.262Z,95420.91
2023-05-14T10:56:11.269Z,95423.66
2023-05-14T10:57:15.152Z,95423.66
2023-05-14T10:58:18.204Z,95424.84
2023-05-14T10:59:21.138Z,95422.88
2023-05-14T11:00:27.708Z,95419.38
2023-05-14T11:01:33.114Z,95424.84
2023-05-14T11:02:37.214Z,95413.09
2023-05-14T11:03:42.285Z,95419.38
2023-05-14T11:04:52.511Z,95427.16
2023-05-14T11:05:56.561Z,95426.41
2023-05-14T11:06:59.354Z,95419.69
2023-05-14T11:08:05.535Z,95419.38
2023-05-14T11:09:07.676Z,95425.63
2023-05-14T11:10:12.626Z,95422.88
2023-05-14T11:11:14.765Z,95419.38
2023-05-14T11:12:18.342Z,95424.84
2023-05-14T11:13:21.530Z,95430.34
2023-05-14T11:14:23.501Z,95431.91
2023-05-14T11:15:28.450Z,95424.84
2023-05-14T11:16:32.613Z,95431.91
2023-05-14T11:17:37.554Z,95428.38
2023-05-14T11:18:41.715Z,95421.66
2023-05-14T11:19:45.855Z,95419.69
2023-05-14T11:20:47.904Z,95428.25
2023-05-14T11:21:50.979Z,95423.94
2023-05-14T11:22:52.900Z,95415.72
2023-05-14T11:23:56.067Z,95414.50
2023-05-14T11:24:58.304Z,95416.50
2023-05-14T11:26:01.601Z,95418.44
2023-05-14T11:27:05.025Z,95411.75
2023-05-14T11:28:10.985Z,95407.03
2023-05-14T11:29:12.982Z,95402.75
2023-05-14T11:30:17.987Z,95405.03
2023-05-14T11:31:21.910Z,95402.28
2023-05-14T11:32:27.130Z,95399.53
2023-05-14T11:33:30.560Z,95404.28
2023-05-14T11:34:32.640Z,95400.31
2023-05-14T11:35:37.570Z,95401.09
2023-05-14T11:36:39.472Z,95408.84
2023-05-14T11:37:42.514Z,95397.25
2023-05-14T11:38:48.905Z,95400.44
2023-05-14T11:39:52.809Z,95395.25
2023-05-14T11:40:54.787Z,95396.78
2023-05-14T11:41:58.762Z,95392.84
2023-05-14T11:43:01.664Z,95390.84
2023-05-14T11:44:03.594Z,95390.09
2023-05-14T11:45:07.713Z,95387.66
2023-05-14T11:46:18.013Z,95386.44
2023-05-14T11:47:22.313Z,95390.72
2023-05-14T11:48:25.746Z,95386.75
2023-05-14T11:49:29.986Z,95391.00
2023-05-14T11:50:36.605Z,95391.00
2023-05-14T11:51:39.421Z,95384.31
2023-05-14T11:52:42.520Z,95395.63
2023-05-14T11:53:45.494Z,95390.13
2023-05-14T11:54:49.625Z,95383.41
2023-05-14T11:55:54.155Z,95380.66
2023-05-14T11:56:57.507Z,95381.72
2023-05-14T11:58:00.403Z,95373.94
2023-05-14T11:59:02.388Z,95380.53
2023-05-14T12:00:10.509Z,95368.31
2023-05-14T12:01:13.668Z,95370.28
2023-05-14T12:02:18.812Z,95380.06
2023-05-14T12:03:25.723Z,95372.59
2023-05-14T12:04:31.296Z,95380.06
2023-05-14T12:05:34.216Z,95370.28
2023-05-14T12:06:36.429Z,95376.38
2023-05-14T12:07:40.671Z,95368.44
2023-05-14T12:08:42.691Z,95371.53
2023-05-14T12:09:49.302Z,95369.84
2023-05-14T12:10:51.279Z,95361.13
2023-05-14T12:11:54.269Z,95362.66
2023-05-14T12:12:56.189Z,95355.94
2023-05-14T12:13:59.833Z,95356.25
2023-05-14T12:15:01.734Z,95365.75
2023-05-14T12:16:05.376Z,95358.69
2023-05-14T12:17:12.611Z,95362.66
2023-05-14T12:18:24.215Z,95358.69
2023-05-14T12:19:28.345Z,95364.19
2023-05-14T12:20:31.855Z,95364.19
2023-05-14T12:21:36.569Z,95365.75
2023-05-14T12:22:42.463Z,95358.25
2023-05-14T12:23:45.328Z,95365.75
2023-05-14T12:24:54.811Z,95361.75
2023-05-14T12:26:02.512Z,95356.56
2023-05-14T12:27:05.569Z,95362.06